Time;durP1;ratioP1;P1;durP2;ratioP2;P2;SDS_P1;SDS_P2;PMS_P1;PMS_P2;Temp;Humidity;BMP_temperature;BMP_pressure;BME280_temperature;BME280_humidity;BME280_pressure;Samples;Min_cycle;Max_cycle;Signal;HPM_P1;HPM_P2
2021/06/29 00:00:49;;;;;;;1.43;1.33;;;22.30;99.90;;;;;;4945502;29;20167;-81
2021/06/29 00:03:16;;;;;;;0.93;0.80;;;22.30;99.90;;;;;;4960229;28;20210;-80
2021/06/29 00:05:42;;;;;;;5.13;1.10;;;22.20;99.90;;;;;;4960145;28;20170;-80
2021/06/29 00:08:08;;;;;;;0.80;0.70;;;22.10;99.90;;;;;;4960696;29;20525;-81
2021/06/29 00:10:35;;;;;;;2.13;1.20;;;21.80;99.90;;;;;;4951641;28;20910;-81
2021/06/29 00:13:01;;;;;;;1.93;1.73;;;21.60;99.90;;;;;;4948148;29;20572;-80
2021/06/29 00:15:28;;;;;;;1.70;1.60;;;21.50;99.90;;;;;;4960499;28;20402;-80
2021/06/29 00:17:55;;;;;;;3.70;2.10;;;21.40;99.90;;;;;;4957826;28;20206;-82
2021/06/29 00:20:21;;;;;;;1.00;0.80;;;21.40;99.90;;;;;;4959901;28;20441;-80
2021/06/29 00:22:46;;;;;;;1.10;0.93;;;21.40;99.90;;;;;;4948578;28;20426;-80
2021/06/29 00:25:13;;;;;;;0.80;0.70;;;21.50;99.90;;;;;;4961892;28;20181;-80
2021/06/29 00:27:40;;;;;;;1.27;0.90;;;21.40;99.90;;;;;;4964246;28;20177;-81
2021/06/29 00:30:07;;;;;;;6.00;1.97;;;21.50;99.90;;;;;;4961181;28;20815;-82
2021/06/29 00:32:33;;;;;;;2.10;0.80;;;21.50;99.90;;;;;;4960383;28;20422;-80
2021/06/29 00:34:59;;;;;;;1.10;0.90;;;21.40;99.90;;;;;;4960986;28;20422;-81
2021/06/29 00:37:24;;;;;;;1.00;0.90;;;21.50;99.90;;;;;;4962667;28;20516;-81
2021/06/29 00:39:51;;;;;;;6.93;1.87;;;21.50;99.90;;;;;;4954802;28;20202;-81
2021/06/29 00:42:16;;;;;;;1.53;1.43;;;21.50;99.90;;;;;;4963140;28;20543;-82
2021/06/29 00:44:44;;;;;;;1.93;1.00;;;21.50;99.90;;;;;;4950695;29;20427;-80
2021/06/29 00:47:10;;;;;;;1.73;1.40;;;21.50;99.90;;;;;;4960509;29;20174;-80
2021/06/29 00:49:36;;;;;;;1.23;1.13;;;21.60;99.90;;;;;;4955419;28;20443;-80
2021/06/29 00:52:03;;;;;;;1.27;0.70;;;21.50;99.90;;;;;;4944448;29;20542;-81
2021/06/29 00:54:29;;;;;;;1.77;1.20;;;21.60;99.90;;;;;;4944199;29;20455;-81
2021/06/29 00:56:54;;;;;;;0.80;0.67;;;21.50;99.90;;;;;;4946743;29;20454;-81
2021/06/29 00:59:20;;;;;;;1.10;1.00;;;21.50;99.90;;;;;;4963079;28;20262;-80
2021/06/29 01:01:45;;;;;;;1.00;0.90;;;21.50;99.90;;;;;;4962031;28;20178;-81
2021/06/29 01:04:11;;;;;;;1.30;1.10;;;21.40;99.90;;;;;;4952155;28;20181;-80
2021/06/29 01:06:38;;;;;;;0.80;0.80;;;21.30;99.90;;;;;;4945073;29;20238;-81
2021/06/29 01:09:04;;;;;;;1.67;1.40;;;21.20;99.90;;;;;;4948981;29;20194;-81
2021/06/29 01:11:30;;;;;;;1.33;1.00;;;21.20;99.90;;;;;;4978668;28;20429;-80
2021/06/29 01:13:56;;;;;;;1.17;1.03;;;21.20;99.90;;;;;;4958126;28;20501;-81
2021/06/29 01:16:21;;;;;;;1.10;1.03;;;21.20;99.90;;;;;;4961480;29;20500;-81
2021/06/29 01:18:47;;;;;;;2.33;1.70;;;21.20;99.90;;;;;;4961586;28;20253;-81
2021/06/29 01:21:18;;;;;;;2.83;1.27;;;21.20;99.90;;;;;;4961400;28;20179;-80
2021/06/29 01:23:56;;;;;;;1.90;1.40;;;21.30;99.90;;;;;;4961980;28;20166;-80
2021/06/29 01:26:27;;;;;;;1.23;1.13;;;21.30;99.90;;;;;;4962708;28;20405;-82
2021/06/29 01:31:19;;;;;;;2.50;1.30;;;21.30;99.90;;;;;;4961575;28;20426;-81
2021/06/29 01:33:45;;;;;;;1.97;1.87;;;21.30;99.90;;;;;;4961793;28;20201;-82
2021/06/29 01:36:19;;;;;;;1.87;1.13;;;21.30;99.90;;;;;;4960503;28;20469;-82
2021/06/29 01:38:46;;;;;;;1.23;1.13;;;21.30;99.90;;;;;;4961760;28;20858;-81
2021/06/29 01:41:14;;;;;;;1.47;0.87;;;21.20;99.90;;;;;;4962140;28;20545;-82
2021/06/29 01:43:55;;;;;;;1.67;1.57;;;21.30;99.90;;;;;;4952991;28;20442;-81
2021/06/29 01:46:23;;;;;;;1.53;0.93;;;21.30;99.90;;;;;;4952413;29;20497;-80
2021/06/29 01:48:51;;;;;;;2.60;1.07;;;21.30;99.90;;;;;;4951583;28;20473;-81
2021/06/29 01:51:18;;;;;;;1.23;1.13;;;21.30;99.90;;;;;;4957621;29;20421;-80
2021/06/29 01:53:45;;;;;;;1.27;0.93;;;21.20;99.90;;;;;;4948328;28;20431;-80
2021/06/29 01:56:18;;;;;;;1.00;0.90;;;21.10;99.90;;;;;;4943735;29;20869;-80
2021/06/29 01:58:57;;;;;;;1.03;0.77;;;21.10;99.90;;;;;;4951565;29;20473;-81
2021/06/29 02:01:23;;;;;;;2.67;2.10;;;21.10;99.90;;;;;;4962296;29;21034;-81
2021/06/29 02:03:49;;;;;;;2.20;2.07;;;21.00;99.90;;;;;;4956868;29;20446;-81
2021/06/29 02:06:16;;;;;;;0.90;0.80;;;21.00;99.90;;;;;;4962471;29;20421;-80
2021/06/29 02:08:43;;;;;;;1.17;0.90;;;20.90;99.90;;;;;;4961959;28;20449;-80
2021/06/29 02:11:08;;;;;;;0.90;0.70;;;20.90;99.90;;;;;;4948600;28;20438;-80
2021/06/29 02:13:34;;;;;;;1.53;1.27;;;20.90;99.90;;;;;;4948793;29;20422;-81
2021/06/29 02:16:00;;;;;;;1.10;1.00;;;20.90;99.90;;;;;;4947747;29;20464;-80
2021/06/29 02:18:27;;;;;;;1.53;1.30;;;20.90;99.90;;;;;;4962671;28;20232;-80
2021/06/29 02:20:53;;;;;;;0.80;0.67;;;20.80;99.90;;;;;;4962236;28;20414;-81
2021/06/29 02:23:18;;;;;;;1.47;1.03;;;20.80;99.90;;;;;;4952351;29;20437;-81
2021/06/29 02:25:44;;;;;;;0.90;0.80;;;20.80;99.90;;;;;;4949139;29;20427;-81
2021/06/29 02:28:10;;;;;;;1.17;0.97;;;20.70;99.90;;;;;;4946541;29;20191;-81
2021/06/29 02:30:36;;;;;;;0.80;0.80;;;20.70;99.90;;;;;;4962025;29;20446;-81
2021/06/29 02:33:02;;;;;;;1.23;0.90;;;20.70;99.90;;;;;;4944930;29;20178;-80
2021/06/29 02:35:28;;;;;;;1.53;1.00;;;20.70;99.90;;;;;;4945328;29;20422;-80
2021/06/29 02:37:54;;;;;;;0.80;0.70;;;20.70;99.90;;;;;;4947417;29;20461;-80
2021/06/29 02:40:20;;;;;;;1.00;0.90;;;20.60;99.90;;;;;;4953514;28;20579;-80
2021/06/29 02:42:45;;;;;;;1.47;1.37;;;20.60;99.90;;;;;;4962071;29;20175;-81
2021/06/29 02:45:17;;;;;;;0.80;0.60;;;20.50;99.90;;;;;;4963799;28;20228;-81
2021/06/29 02:47:42;;;;;;;0.70;0.50;;;20.50;99.90;;;;;;4962816;28;20237;-80
2021/06/29 02:50:09;;;;;;;1.23;0.70;;;20.40;99.90;;;;;;4962505;29;20532;-81
2021/06/29 02:52:36;;;;;;;1.03;0.83;;;20.40;99.90;;;;;;4957695;28;20179;-80
2021/06/29 02:55:04;;;;;;;0.93;0.90;;;20.40;99.90;;;;;;4956029;28;20437;-81
2021/06/29 02:57:29;;;;;;;1.00;0.90;;;20.40;99.90;;;;;;4962008;28;20449;-81
2021/06/29 02:59:55;;;;;;;0.80;0.70;;;20.40;99.90;;;;;;4965244;29;20877;-80
2021/06/29 03:02:21;;;;;;;0.80;0.80;;;20.40;99.90;;;;;;4946134;28;20258;-80
2021/06/29 03:04:46;;;;;;;0.80;0.63;;;20.30;99.90;;;;;;4940836;29;20175;-81
2021/06/29 03:07:12;;;;;;;0.70;0.50;;;20.20;99.90;;;;;;4945062;29;20217;-80
2021/06/29 03:09:38;;;;;;;1.27;0.80;;;20.20;99.90;;;;;;4950350;29;20202;-79
2021/06/29 03:12:04;;;;;;;0.70;0.50;;;20.00;99.90;;;;;;4954441;28;20229;-81
2021/06/29 03:14:29;;;;;;;1.30;1.20;;;20.00;99.90;;;;;;4956135;28;20434;-79
2021/06/29 03:16:55;;;;;;;1.07;0.93;;;20.00;99.90;;;;;;4955961;28;20500;-79
2021/06/29 03:19:21;;;;;;;1.00;0.80;;;20.00;99.90;;;;;;4961181;29;20594;-79
2021/06/29 03:21:47;;;;;;;1.77;1.67;;;20.00;99.90;;;;;;4960834;28;20216;-80
2021/06/29 03:24:12;;;;;;;1.27;1.00;;;20.00;99.90;;;;;;4960639;28;20783;-80
2021/06/29 03:26:39;;;;;;;6.30;3.20;;;19.90;99.90;;;;;;4947420;29;20534;-79
2021/06/29 03:29:04;;;;;;;0.77;0.60;;;19.90;99.90;;;;;;4959061;28;20563;-80
2021/06/29 03:31:32;;;;;;;1.73;0.60;;;19.80;99.90;;;;;;4958036;29;20458;-79
2021/06/29 03:33:58;;;;;;;1.67;1.57;;;19.80;99.90;;;;;;4959845;28;20177;-79
2021/06/29 03:36:23;;;;;;;0.70;0.60;;;19.70;99.90;;;;;;4958968;28;20476;-80
2021/06/29 03:38:49;;;;;;;0.80;0.70;;;19.60;99.90;;;;;;4958288;29;20698;-80
2021/06/29 03:41:15;;;;;;;0.70;0.50;;;19.70;99.90;;;;;;4947893;29;20171;-80
2021/06/29 03:43:40;;;;;;;0.80;0.60;;;19.60;99.90;;;;;;4951673;29;20193;-80
2021/06/29 03:46:06;;;;;;;0.80;0.70;;;19.60;99.90;;;;;;4956286;29;21883;-80
2021/06/29 03:48:33;;;;;;;1.37;1.27;;;19.60;99.90;;;;;;4957464;28;20198;-80
2021/06/29 03:50:58;;;;;;;0.70;0.60;;;19.60;99.90;;;;;;4950863;29;20438;-79
2021/06/29 03:53:24;;;;;;;1.53;1.27;;;19.70;99.90;;;;;;4959598;29;20476;-79
2021/06/29 03:55:50;;;;;;;0.70;0.50;;;19.60;99.90;;;;;;4958435;29;20182;-79
2021/06/29 03:58:15;;;;;;;0.80;0.60;;;19.70;99.90;;;;;;4959077;29;20201;-79
2021/06/29 04:00:41;;;;;;;1.43;1.33;;;19.70;99.90;;;;;;4957886;29;20258;-79
2021/06/29 04:03:06;;;;;;;0.80;0.60;;;19.70;99.90;;;;;;4958006;29;20182;-79
2021/06/29 04:05:32;;;;;;;5.43;2.00;;;19.70;99.90;;;;;;4957498;29;20197;-79
2021/06/29 04:07:58;;;;;;;1.70;1.60;;;19.70;99.90;;;;;;4959708;28;20182;-79
2021/06/29 04:10:23;;;;;;;0.80;0.70;;;19.80;99.90;;;;;;4957331;29;20182;-79
2021/06/29 04:12:49;;;;;;;1.27;0.77;;;19.80;99.90;;;;;;4952779;28;20182;-79
2021/06/29 04:15:14;;;;;;;1.30;0.70;;;19.70;99.90;;;;;;4953605;29;20181;-79
2021/06/29 04:17:40;;;;;;;1.10;0.80;;;19.70;99.90;;;;;;4958245;28;20210;-79
2021/06/29 04:20:07;;;;;;;4.13;3.50;;;19.80;99.90;;;;;;4956887;28;20209;-79
2021/06/29 04:22:33;;;;;;;1.30;1.20;;;19.80;99.90;;;;;;4957775;29;20174;-79
2021/06/29 04:24:58;;;;;;;0.80;0.80;;;19.80;99.90;;;;;;4958297;28;20417;-79
2021/06/29 04:27:24;;;;;;;0.70;0.50;;;19.80;99.90;;;;;;4956756;28;20255;-79
2021/06/29 04:29:50;;;;;;;1.77;1.67;;;19.80;99.90;;;;;;4958618;29;20190;-80
2021/06/29 04:32:16;;;;;;;1.33;1.23;;;19.90;99.90;;;;;;4957031;28;20182;-80
2021/06/29 04:34:42;;;;;;;0.90;0.80;;;19.90;99.90;;;;;;4948292;28;20794;-80
2021/06/29 04:37:07;;;;;;;1.40;1.23;;;19.90;99.90;;;;;;4951392;29;20711;-78
2021/06/29 04:39:33;;;;;;;2.10;1.43;;;20.00;99.90;;;;;;4956047;28;20194;-79
2021/06/29 04:41:59;;;;;;;1.20;1.10;;;20.00;99.90;;;;;;4956832;28;20174;-79
2021/06/29 04:44:24;;;;;;;0.80;0.60;;;20.10;99.90;;;;;;4957485;28;20413;-79
2021/06/29 04:46:51;;;;;;;2.07;1.97;;;20.10;99.90;;;;;;4972622;28;20543;-79
2021/06/29 04:49:19;;;;;;;1.03;0.93;;;20.20;99.90;;;;;;4956722;28;20197;-80
2021/06/29 04:51:44;;;;;;;0.80;0.60;;;20.20;99.90;;;;;;4939847;28;20490;-80
2021/06/29 04:54:10;;;;;;;0.80;0.60;;;20.20;99.90;;;;;;4936035;29;20422;-79
2021/06/29 04:56:35;;;;;;;1.10;1.00;;;20.30;99.90;;;;;;4949397;29;20210;-79
2021/06/29 04:59:02;;;;;;;0.90;0.77;;;20.30;99.90;;;;;;4956415;28;20190;-79
2021/06/29 05:01:29;;;;;;;0.80;0.70;;;20.30;99.90;;;;;;4950048;28;20177;-78
2021/06/29 05:03:55;;;;;;;1.33;0.70;;;20.30;99.90;;;;;;4943421;29;20457;-79
2021/06/29 05:06:21;;;;;;;0.80;0.80;;;20.30;99.90;;;;;;4954514;28;20514;-79
2021/06/29 05:08:47;;;;;;;2.00;0.63;;;20.30;99.90;;;;;;4955115;29;20442;-79
2021/06/29 05:11:13;;;;;;;1.23;1.13;;;20.30;99.90;;;;;;4957688;29;20277;-79
2021/06/29 05:13:38;;;;;;;0.80;0.70;;;20.30;99.90;;;;;;4943020;28;20183;-79
2021/06/29 05:16:04;;;;;;;0.80;0.70;;;20.30;99.90;;;;;;4938069;29;20465;-78
2021/06/29 05:18:30;;;;;;;1.27;1.17;;;20.30;99.90;;;;;;4949194;29;20269;-78
2021/06/29 05:20:56;;;;;;;0.80;0.70;;;20.30;99.90;;;;;;4957387;28;20181;-78
2021/06/29 05:23:22;;;;;;;1.10;0.97;;;20.30;99.90;;;;;;4946084;29;20181;-80
2021/06/29 05:25:48;;;;;;;0.80;0.70;;;20.20;99.90;;;;;;4936575;29;20246;-78
2021/06/29 05:28:14;;;;;;;0.97;0.97;;;20.30;99.90;;;;;;4937299;29;20513;-79
2021/06/29 05:30:39;;;;;;;0.70;0.60;;;20.30;99.90;;;;;;4937976;29;20187;-80
2021/06/29 05:33:05;;;;;;;0.70;0.60;;;20.30;99.90;;;;;;4937333;29;20171;-79
2021/06/29 05:35:31;;;;;;;0.80;0.70;;;20.20;99.90;;;;;;4949751;29;20180;-79
2021/06/29 05:37:56;;;;;;;0.80;0.70;;;20.30;99.90;;;;;;4953285;29;20453;-80
2021/06/29 05:40:22;;;;;;;0.80;0.60;;;20.30;99.90;;;;;;4955162;28;20174;-80
2021/06/29 05:42:47;;;;;;;0.70;0.60;;;20.30;99.90;;;;;;4957220;28;20583;-79
2021/06/29 05:45:14;;;;;;;1.07;0.97;;;20.20;99.90;;;;;;4956036;28;20179;-80
2021/06/29 05:47:41;;;;;;;0.70;0.50;;;20.20;99.90;;;;;;4956660;28;20193;-80
2021/06/29 05:50:11;;;;;;;0.70;0.60;;;20.30;99.90;;;;;;4954322;28;20450;-79
2021/06/29 05:52:37;;;;;;;0.80;0.70;;;20.30;99.90;;;;;;4956664;28;20418;-80
2021/06/29 05:55:04;;;;;;;0.77;0.63;;;20.20;99.90;;;;;;4955286;28;20744;-80
2021/06/29 05:57:31;;;;;;;1.97;0.93;;;20.20;99.90;;;;;;4949900;28;20458;-81
2021/06/29 05:59:57;;;;;;;0.80;0.80;;;20.10;99.90;;;;;;4943464;29;20448;-80
2021/06/29 06:02:22;;;;;;;0.70;0.60;;;20.10;99.90;;;;;;4954847;28;20406;-80
2021/06/29 06:04:48;;;;;;;0.77;0.70;;;20.20;99.90;;;;;;4953723;29;20170;-79
2021/06/29 06:07:13;;;;;;;0.80;0.63;;;20.30;99.90;;;;;;4955295;29;20205;-79
2021/06/29 06:09:39;;;;;;;0.80;0.60;;;20.50;99.90;;;;;;4955404;28;20290;-80
2021/06/29 06:12:05;;;;;;;0.70;0.50;;;20.50;99.90;;;;;;4951405;28;21866;-81
2021/06/29 06:14:30;;;;;;;0.70;0.57;;;20.60;99.90;;;;;;4955328;28;20185;-80
2021/06/29 06:16:56;;;;;;;0.90;0.70;;;20.70;99.90;;;;;;4955792;29;20870;-79
2021/06/29 06:19:22;;;;;;;0.70;0.60;;;20.70;99.90;;;;;;4953297;29;20213;-80
2021/06/29 06:21:48;;;;;;;0.90;0.70;;;20.80;99.90;;;;;;4953507;29;20524;-80
2021/06/29 06:24:13;;;;;;;0.70;0.50;;;20.90;99.90;;;;;;4956148;29;20406;-81
2021/06/29 06:26:39;;;;;;;0.80;0.60;;;20.90;99.90;;;;;;4955859;28;20619;-80
2021/06/29 06:29:05;;;;;;;0.70;0.50;;;21.10;99.90;;;;;;4958479;28;20202;-81
2021/06/29 06:31:30;;;;;;;0.77;0.60;;;21.10;99.90;;;;;;4960400;28;20437;-81
2021/06/29 06:34:20;;;;;;;0.90;0.70;;;21.10;99.90;;;;;;4941530;29;20198;-89
2021/06/29 06:36:47;;;;;;;0.70;0.50;;;21.30;99.90;;;;;;4961869;29;20201;-81
2021/06/29 06:39:13;;;;;;;0.70;0.50;;;21.30;99.90;;;;;;4956763;29;21016;-80
2021/06/29 06:41:39;;;;;;;0.73;0.60;;;21.30;99.90;;;;;;4952233;29;20433;-80
2021/06/29 06:44:04;;;;;;;0.80;0.63;;;21.30;99.90;;;;;;4960154;29;20409;-80
2021/06/29 06:46:30;;;;;;;0.80;0.60;;;21.30;99.90;;;;;;4947982;28;20194;-80
2021/06/29 06:48:55;;;;;;;0.70;0.50;;;21.30;99.90;;;;;;4940062;29;20206;-80
2021/06/29 06:51:21;;;;;;;0.90;0.70;;;21.30;99.90;;;;;;4942734;29;20181;-79
2021/06/29 06:53:47;;;;;;;0.80;0.60;;;21.40;99.90;;;;;;4941531;29;20175;-79
2021/06/29 06:56:15;;;;;;;0.70;0.50;;;21.40;99.90;;;;;;4941405;29;20263;-80
2021/06/29 06:58:45;;;;;;;0.80;0.73;;;21.40;99.90;;;;;;4942726;29;20191;-80
2021/06/29 07:01:12;;;;;;;1.20;0.90;;;21.40;99.90;;;;;;4959899;28;20895;-80
2021/06/29 07:03:39;;;;;;;0.80;0.60;;;21.50;99.90;;;;;;4958802;29;20422;-80
2021/06/29 07:06:07;;;;;;;1.17;1.03;;;21.60;99.90;;;;;;4957976;29;20956;-80
2021/06/29 07:08:36;;;;;;;0.87;0.77;;;21.60;99.90;;;;;;4959253;28;20441;-80
2021/06/29 07:11:02;;;;;;;1.20;0.80;;;21.70;99.90;;;;;;4955231;29;20436;-78
2021/06/29 07:13:28;;;;;;;1.07;0.97;;;21.80;99.90;;;;;;4947873;29;20957;-80
2021/06/29 07:15:54;;;;;;;1.30;1.00;;;21.90;99.90;;;;;;4958543;29;20418;-79
2021/06/29 07:18:20;;;;;;;1.00;0.87;;;21.90;99.90;;;;;;4958325;28;20817;-80
2021/06/29 07:20:46;;;;;;;0.80;0.60;;;21.90;99.90;;;;;;4956899;28;20159;-78
2021/06/29 07:23:12;;;;;;;0.90;0.60;;;21.90;99.90;;;;;;4958100;28;20509;-79
2021/06/29 07:25:39;;;;;;;0.80;0.70;;;21.80;99.90;;;;;;4948379;28;20456;-79
2021/06/29 07:28:06;;;;;;;0.70;0.50;;;21.90;99.90;;;;;;4941654;29;20424;-79
2021/06/29 07:30:31;;;;;;;0.70;0.50;;;21.90;99.90;;;;;;4953870;29;20418;-79
2021/06/29 07:32:58;;;;;;;1.00;0.90;;;22.00;99.90;;;;;;4960388;28;20422;-80
2021/06/29 07:35:25;;;;;;;0.70;0.60;;;21.90;99.90;;;;;;4946206;28;20636;-80
2021/06/29 07:37:51;;;;;;;0.80;0.70;;;21.90;99.90;;;;;;4951995;28;20823;-78
2021/06/29 07:40:16;;;;;;;0.83;0.60;;;22.10;99.90;;;;;;4956942;29;20425;-79
2021/06/29 07:42:42;;;;;;;1.30;1.20;;;22.10;99.90;;;;;;4958972;28;20433;-80
2021/06/29 07:45:09;;;;;;;0.80;0.50;;;22.20;99.90;;;;;;4959586;28;20185;-80
2021/06/29 07:47:35;;;;;;;1.67;1.10;;;22.40;99.90;;;;;;4957042;28;20414;-79
2021/06/29 07:50:01;;;;;;;0.80;0.60;;;22.60;99.90;;;;;;4958065;28;20546;-80
2021/06/29 07:52:27;;;;;;;0.80;0.50;;;22.90;99.90;;;;;;4958328;28;20663;-80
2021/06/29 07:54:53;;;;;;;0.90;0.60;;;23.30;99.90;;;;;;4959597;28;20468;-80
2021/06/29 07:57:18;;;;;;;0.80;0.67;;;23.60;99.90;;;;;;4957807;28;20202;-80
2021/06/29 07:59:44;;;;;;;0.80;0.50;;;24.10;99.90;;;;;;4957537;28;20194;-79
2021/06/29 08:02:09;;;;;;;0.90;0.60;;;24.40;99.90;;;;;;4957331;28;20189;-80
2021/06/29 08:04:37;;;;;;;0.80;0.70;;;24.80;99.90;;;;;;4956911;29;20174;-80
2021/06/29 08:07:03;;;;;;;0.80;0.60;;;25.00;99.90;;;;;;4955976;28;20178;-80
2021/06/29 08:09:28;;;;;;;0.80;0.50;;;25.20;99.90;;;;;;4958110;28;20971;-80
2021/06/29 08:11:54;;;;;;;0.80;0.60;;;25.60;99.90;;;;;;4957800;28;20473;-80
2021/06/29 08:14:19;;;;;;;0.80;0.60;;;25.80;99.90;;;;;;4940499;28;20575;-79
2021/06/29 08:16:46;;;;;;;0.90;0.67;;;26.00;99.90;;;;;;4942132;29;20675;-79
2021/06/29 08:19:11;;;;;;;1.13;0.70;;;25.90;99.90;;;;;;4941948;29;20206;-79
2021/06/29 08:21:37;;;;;;;0.80;0.60;;;26.30;99.90;;;;;;4952112;29;20422;-80
2021/06/29 08:24:04;;;;;;;0.80;0.50;;;26.50;99.90;;;;;;4955173;29;20183;-79
2021/06/29 08:26:30;;;;;;;1.30;0.80;;;26.40;99.90;;;;;;4960289;28;20871;-80
2021/06/29 08:28:56;;;;;;;1.10;0.60;;;26.60;99.90;;;;;;4959308;28;20477;-80
2021/06/29 08:31:21;;;;;;;0.90;0.70;;;26.90;99.90;;;;;;4959243;28;20182;-79
2021/06/29 08:33:48;;;;;;;0.80;0.60;;;27.00;99.90;;;;;;4959228;28;20170;-79
2021/06/29 08:36:16;;;;;;;0.90;0.60;;;27.20;99.90;;;;;;4945836;28;20458;-81
2021/06/29 08:38:41;;;;;;;0.90;0.80;;;27.30;99.90;;;;;;4942483;29;20524;-79
2021/06/29 08:41:07;;;;;;;1.33;0.80;;;27.40;99.90;;;;;;4956470;29;20468;-80
2021/06/29 08:43:33;;;;;;;1.37;0.80;;;27.70;99.90;;;;;;4960797;28;20170;-79
2021/06/29 08:46:01;;;;;;;1.00;0.70;;;28.00;99.90;;;;;;4959661;28;20625;-80
2021/06/29 08:48:26;;;;;;;1.00;0.80;;;28.30;99.90;;;;;;4955223;28;20449;-84
2021/06/29 08:50:52;;;;;;;0.87;0.70;;;28.60;99.90;;;;;;4941225;29;20422;-79
2021/06/29 08:53:18;;;;;;;2.80;1.37;;;28.60;99.90;;;;;;4946651;29;20246;-80
2021/06/29 08:55:50;;;;;;;1.00;0.87;;;28.60;99.90;;;;;;4960185;29;20178;-80
2021/06/29 08:58:21;;;;;;;1.00;0.70;;;28.80;99.90;;;;;;4957084;28;20454;-81
2021/06/29 09:00:48;;;;;;;1.33;0.80;;;28.70;99.90;;;;;;4957232;28;20179;-80
2021/06/29 09:03:14;;;;;;;0.80;0.70;;;28.70;99.90;;;;;;4960903;29;20473;-80
2021/06/29 09:05:47;;;;;;;1.23;1.13;;;28.50;99.90;;;;;;4958699;28;20792;-76
2021/06/29 09:08:18;;;;;;;3.03;0.87;;;28.60;99.90;;;;;;4972749;28;20206;-80
2021/06/29 09:11:09;;;;;;;1.00;0.80;;;28.70;99.90;;;;;;4939366;28;20900;-77
2021/06/29 09:13:36;;;;;;;1.73;0.70;;;28.70;99.90;;;;;;4940694;29;20434;-78
2021/06/29 09:16:03;;;;;;;1.13;1.03;;;28.80;99.90;;;;;;4936619;29;20410;-78
2021/06/29 09:18:32;;;;;;;0.90;0.60;;;28.70;99.90;;;;;;4955642;29;20458;-78
2021/06/29 09:21:02;;;;;;;1.20;0.80;;;28.90;99.90;;;;;;4956236;28;20402;-78
2021/06/29 09:23:34;;;;;;;0.90;0.80;;;28.90;99.90;;;;;;4958725;29;20486;-78
2021/06/29 09:26:03;;;;;;;1.17;0.90;;;28.90;99.90;;;;;;4954531;28;20524;-78
2021/06/29 09:28:38;;;;;;;1.53;0.90;;;28.70;99.90;;;;;;4954440;28;20438;-77
2021/06/29 09:31:07;;;;;;;0.90;0.70;;;28.70;99.90;;;;;;4953328;28;20565;-77
2021/06/29 09:33:36;;;;;;;1.53;1.20;;;28.70;99.90;;;;;;4954262;28;20448;-77
2021/06/29 09:36:09;;;;;;;1.13;0.90;;;28.70;99.90;;;;;;4954201;28;20491;-79
2021/06/29 09:38:37;;;;;;;1.20;0.97;;;28.70;99.90;;;;;;4953853;28;20521;-78
2021/06/29 09:41:24;;;;;;;1.23;0.93;;;28.70;99.90;;;;;;4955457;28;20419;-79
2021/06/29 09:43:55;;;;;;;1.10;0.70;;;28.60;99.90;;;;;;4936698;29;20427;-79
2021/06/29 09:46:23;;;;;;;0.90;0.73;;;28.40;99.90;;;;;;4938776;29;20441;-78
2021/06/29 09:48:50;;;;;;;1.23;0.80;;;28.30;99.90;;;;;;4939683;29;20434;-77
2021/06/29 09:51:19;;;;;;;0.90;0.80;;;28.30;99.90;;;;;;4943643;29;20450;-78
2021/06/29 09:53:47;;;;;;;1.10;0.70;;;28.10;99.90;;;;;;4936944;29;20796;-78
2021/06/29 09:56:28;;;;;;;0.90;0.60;;;27.90;99.90;;;;;;4937557;29;20423;-77
2021/06/29 09:58:56;;;;;;;1.57;0.63;;;27.90;99.90;;;;;;4950279;28;20537;-78
2021/06/29 10:01:26;;;;;;;0.90;0.80;;;28.00;99.90;;;;;;4959945;28;20437;-78
2021/06/29 10:03:52;;;;;;;0.97;0.67;;;28.10;99.90;;;;;;4956205;29;20855;-78
2021/06/29 10:06:29;;;;;;;1.23;0.80;;;28.00;99.90;;;;;;4951571;28;20418;-78
2021/06/29 10:09:05;;;;;;;0.80;0.50;;;28.00;99.90;;;;;;4955053;29;21095;-78
2021/06/29 10:11:37;;;;;;;1.27;0.90;;;27.90;99.90;;;;;;4954335;28;20823;-78
2021/06/29 10:14:09;;;;;;;0.80;0.70;;;28.00;99.90;;;;;;4954148;28;20390;-77
2021/06/29 10:16:43;;;;;;;0.83;0.63;;;28.20;99.90;;;;;;4953636;29;20449;-78
2021/06/29 10:22:03;;;;;;;0.83;0.63;;;29.00;99.90;;;;;;4954250;29;20437;-78
2021/06/29 10:24:32;;;;;;;0.80;0.60;;;29.60;99.90;;;;;;4952696;29;20538;-76
2021/06/29 10:27:00;;;;;;;1.13;1.03;;;30.00;99.90;;;;;;4952916;28;20421;-78
2021/06/29 10:29:28;;;;;;;0.90;0.80;;;30.50;99.90;;;;;;4953856;28;20459;-78
2021/06/29 10:31:58;;;;;;;0.90;0.70;;;30.70;99.90;;;;;;4952376;28;20424;-78
2021/06/29 10:34:26;;;;;;;1.10;0.93;;;31.10;99.90;;;;;;4941018;29;20532;-79
2021/06/29 10:36:56;;;;;;;1.10;1.00;;;31.50;99.90;;;;;;4957144;29;20501;-79
2021/06/29 10:39:24;;;;;;;0.90;0.70;;;31.60;98.10;;;;;;4957826;28;20434;-79
2021/06/29 10:42:01;;;;;;;0.80;0.63;;;31.60;92.90;;;;;;4959782;28;20406;-79
2021/06/29 10:44:28;;;;;;;1.00;0.77;;;31.50;94.20;;;;;;4959109;28;20430;-79
2021/06/29 10:46:55;;;;;;;0.90;0.70;;;31.80;93.60;;;;;;4957035;29;20534;-78
2021/06/29 10:49:42;;;;;;;1.50;1.07;;;32.10;94.90;;;;;;4957351;28;20445;-79
2021/06/29 10:52:28;;;;;;;0.90;0.70;;;32.20;94.60;;;;;;4957557;29;20452;-79
2021/06/29 10:55:02;;;;;;;1.03;0.70;;;32.60;94.60;;;;;;4958972;28;20447;-79
2021/06/29 10:57:40;;;;;;;0.90;0.70;;;32.50;90.50;;;;;;4959281;29;20629;-79
2021/06/29 11:00:22;;;;;;;1.17;0.87;;;32.60;86.00;;;;;;4958225;28;20862;-79
2021/06/29 11:02:57;;;;;;;0.90;0.60;;;32.90;90.30;;;;;;4959965;29;20777;-80
2021/06/29 11:05:25;;;;;;;1.10;0.93;;;33.20;90.20;;;;;;4958007;29;20432;-79
2021/06/29 11:07:51;;;;;;;1.63;1.03;;;33.50;86.80;;;;;;4966878;28;20434;-79
2021/06/29 11:10:29;;;;;;;1.13;1.03;;;33.60;82.70;;;;;;4959497;29;20434;-79
2021/06/29 11:13:00;;;;;;;1.00;0.80;;;33.70;80.80;;;;;;4957152;29;20225;-78
2021/06/29 11:15:46;;;;;;;0.87;0.70;;;33.60;81.20;;;;;;4961940;28;20430;-79
2021/06/29 11:18:12;;;;;;;0.90;0.60;;;33.90;83.90;;;;;;4976558;28;20472;-79
2021/06/29 11:20:46;;;;;;;1.73;1.40;;;34.10;80.20;;;;;;4962535;28;20457;-80
2021/06/29 11:23:16;;;;;;;1.43;1.00;;;34.30;77.30;;;;;;4978270;28;20452;-79
2021/06/29 11:25:43;;;;;;;1.00;0.90;;;34.30;78.00;;;;;;4961061;29;20430;-79
2021/06/29 11:28:14;;;;;;;1.13;1.03;;;34.40;78.90;;;;;;4962457;28;20509;-78
2021/06/29 11:31:07;;;;;;;1.03;0.93;;;34.30;78.10;;;;;;4962371;28;20418;-79
2021/06/29 11:33:47;;;;;;;0.93;0.73;;;34.20;76.70;;;;;;4963081;28;20499;-78
2021/06/29 11:36:45;;;;;;;0.90;0.80;;;34.00;77.00;;;;;;4962813;28;20497;-79
2021/06/29 11:39:13;;;;;;;1.03;0.93;;;33.90;76.60;;;;;;4961058;28;20438;-79
2021/06/29 11:41:39;;;;;;;1.50;1.20;;;33.90;79.20;;;;;;4952355;29;20434;-79
2021/06/29 11:44:08;;;;;;;0.90;0.73;;;33.90;80.80;;;;;;4951197;29;20818;-78
2021/06/29 11:46:46;;;;;;;1.63;1.40;;;34.00;79.40;;;;;;4962000;29;20878;-79
2021/06/29 11:49:14;;;;;;;1.47;0.80;;;33.80;76.50;;;;;;4960921;29;20440;-78
2021/06/29 11:51:51;;;;;;;1.53;1.40;;;34.10;74.80;;;;;;4960477;29;20438;-78
2021/06/29 11:54:37;;;;;;;1.00;0.90;;;34.30;73.20;;;;;;4962645;29;20414;-79
2021/06/29 11:57:19;;;;;;;0.90;0.80;;;34.30;76.00;;;;;;4949713;28;20867;-79
2021/06/29 11:59:45;;;;;;;1.33;1.23;;;34.40;73.80;;;;;;4941750;29;20529;-78
2021/06/29 12:02:16;;;;;;;1.47;0.87;;;34.40;74.30;;;;;;4960443;29;20467;-79
2021/06/29 12:05:08;;;;;;;1.20;1.00;;;34.20;68.00;;;;;;4961666;28;20506;-79
2021/06/29 12:07:38;;;;;;;1.97;1.87;;;34.20;70.70;;;;;;4952151;28;20519;-78
2021/06/29 12:10:10;;;;;;;0.90;0.80;;;34.20;76.10;;;;;;4955884;28;20445;-79
2021/06/29 12:12:37;;;;;;;1.10;1.00;;;33.90;71.20;;;;;;4957661;28;20434;-78
2021/06/29 12:15:11;;;;;;;1.10;1.00;;;33.70;70.00;;;;;;4959591;28;20449;-79
2021/06/29 12:17:42;;;;;;;1.13;1.00;;;33.50;74.20;;;;;;4961557;28;20843;-79
2021/06/29 12:20:11;;;;;;;1.10;1.00;;;33.50;74.30;;;;;;4962153;28;20453;-78
2021/06/29 12:22:39;;;;;;;0.97;0.87;;;33.30;72.90;;;;;;4960792;28;20965;-78
2021/06/29 12:25:07;;;;;;;1.20;1.10;;;32.90;73.60;;;;;;4960150;28;20409;-79
2021/06/29 12:27:41;;;;;;;1.10;0.90;;;32.50;77.20;;;;;;4959372;29;20433;-79
2021/06/29 12:30:30;;;;;;;1.00;0.90;;;32.50;78.70;;;;;;4960835;29;20470;-78
2021/06/29 12:32:56;;;;;;;1.40;1.30;;;32.20;79.20;;;;;;4958997;28;20433;-79
2021/06/29 12:35:22;;;;;;;2.70;0.80;;;32.00;81.70;;;;;;4959447;28;20445;-78
2021/06/29 12:38:03;;;;;;;1.30;0.70;;;31.90;81.50;;;;;;4954744;29;21164;-79
2021/06/29 12:40:31;;;;;;;1.40;1.30;;;31.90;82.90;;;;;;4942700;29;20419;-78
2021/06/29 12:42:59;;;;;;;1.30;1.20;;;32.00;90.60;;;;;;4960775;28;20820;-79
2021/06/29 12:45:29;;;;;;;0.90;0.80;;;32.20;87.50;;;;;;4959944;28;20461;-79
2021/06/29 12:48:03;;;;;;;0.90;0.77;;;32.20;85.80;;;;;;4960217;28;20426;-79
2021/06/29 12:50:29;;;;;;;1.53;1.43;;;32.20;86.40;;;;;;4957335;29;20418;-78
2021/06/29 12:52:55;;;;;;;0.90;0.70;;;32.20;87.40;;;;;;4959550;28;20437;-78
2021/06/29 12:55:23;;;;;;;1.00;0.90;;;32.00;81.50;;;;;;4959810;28;20185;-79
2021/06/29 12:58:03;;;;;;;1.27;1.17;;;32.10;84.30;;;;;;4959659;28;20323;-79